AirNav   Air Wisconsin pilot careers
 
 265 users online  

UT54 Crystal Springs Ranch Airport
Leeds, Utah, USA

GOING TO LEEDS?


FAA INFORMATION EFFECTIVE 12 OCTOBER 2017

Location

FAA Identifier: UT54
Lat/Long: 37-15-11.9350N / 113-20-02.8170W
37-15.198917N / 113-20.046950W
37.2533153 / -113.3341158
(estimated)
Elevation: 3671 ft. / 1118.9 m (surveyed)
Variation: 14E (1985)
From city: 1 mile NE of LEEDS, UT
Time zone: UTC -6 (UTC -7 during Standard Time)
Zip code: 84737

Airport Operations

Airport use: Private use. Permission required prior to landing
Activation date: 08/1985
Control tower: no
ARTCC: LOS ANGELES CENTER
FSS: CEDAR CITY FLIGHT SERVICE STATION
Attendance: UNATNDD
Wind indicator: yes
Segmented circle: no

Airport Communications

WX AWOS-3PT at SGU (16 nm SW): 135.075 (435-634-0940)

Nearby radio navigation aids

VOR radial/distance  VOR name  Freq  Var
UTIr020/16.7ST GEORGE VOR/DME108.6012E
EHKr186/34.4ENOCH VOR/DME117.3016E

 
NDB name  Hdg/Dist  Freq  Var  ID
COLORADO CITY306/23.540313EAZC .- --.. -.-.

Airport Services

Runway Information

Runway 3/21

Dimensions: 2600 x 80 ft. / 792 x 24 m
Surface: dirt
RUNWAY 3  RUNWAY 21
Traffic pattern: leftleft
Obstructions: 25 ft. pline, 500 ft. from runway25 ft. pline, 1000 ft. from runway

Airport Ownership and Management from official FAA records

Ownership: Privately-owned
Owner: ALAN L. HOWARD
P.O. BOX 460630
LEEDS, UT 84746
Phone 435-879-2215
Manager: ALAN L. HOWARD
950 NORTH MAIN ST.
LEEDS, UT 84746
Phone 435-879-2215

Airport Operational Statistics

Aircraft based on the field: 1
Single engine airplanes: 1
    

Instrument Procedures

There are no published instrument procedures at UT54.

Some nearby airports with instrument procedures:

KSGU - St George Regional Airport (16 nm SW)
KAZC - Colorado City Municipal Airport (23 nm SE)
KCDC - Cedar City Regional Airport (29 nm NE)
KKNB - Kanab Municipal Airport (41 nm E)
U55 - Panguitch Municipal Airport (57 nm NE)
 
Loc | Ops | Rwys | IFR | FBO | Links
Com | Nav | Svcs | Stats | Notes


 
Area around UT54 (Crystal Springs Ranch Airport)
 
Road maps at: MapQuest Bing Google
 
Aerial photo
No photo
 
Sectional chart

 
Airport distance calculator
Flying to Crystal Springs Ranch Airport? Find the distance to fly.

From to UT54

Sunrise and sunset
Times for 19-Oct-2017
 Local
(UTC-6)
 Zulu
(UTC)
Morning civil twilight07:2013:20
Sunrise07:4613:46
Sunset18:5100:51
Evening civil twilight19:1701:17

Current date and time
Zulu (UTC)  19-Oct-2017 09:07:12
Local (UTC-6)  19-Oct-2017 03:07:12
 
METAR
KSGU 
16nm SW 
190856Z AUTO 02008KT 10SM -RA BKN100 14/03 A2996 RMK AO2 RAB0758E19B46 SLP125 P0000 60000 T01440028 58009
KAZC 
23nm SE 
190855Z AUTO 13004KT 10SM RA SCT044 SCT060 BKN090 12/M02 A3009 RMK AO2
KCDC 
29nm NE 
190853Z AUTO 12003KT 10SM SCT100 08/M05 A3008 RMK AO2 SLP137 T00831050 56011
TAF
KSGU 
16nm SW 
190523Z 1906/2006 VRB05KT P6SM SCT100 BKN120
NOTAMs
Click for the latest NOTAMs
NOTAMs are issued by the DoD/FAA and will open in a separate window not controlled by AirNav.

 

 
 

Would you like to see your business listed on this page?

 If your business provides an interesting product or service to pilots, flight crews, aircraft, or users of the Crystal Springs Ranch Airport, you should consider listing it here.  To start the listing process, click on the button below
 
Add a business
 

Other Pages about Crystal Springs Ranch Airport

Update a link
 
Copyright © AirNav, LLC. All rights reserved. Privacy Policy  Contact